createdAt,value
2019-05-25T00:01:24.725Z,9.60
2019-05-25T00:06:30.578Z,9.60
2019-05-25T00:11:33.338Z,9.60
2019-05-25T00:16:36.098Z,9.50
2019-05-25T00:21:39.388Z,9.50
2019-05-25T00:26:42.223Z,9.50
2019-05-25T00:31:45.754Z,9.50
2019-05-25T00:36:49.875Z,9.70
2019-05-25T00:41:52.796Z,9.80
2019-05-25T00:46:55.594Z,9.80
2019-05-25T00:51:58.241Z,9.80
2019-05-25T00:57:01.106Z,9.80
2019-05-25T01:02:03.918Z,9.90
2019-05-25T01:07:06.704Z,9.90
2019-05-25T01:12:09.495Z,9.90
2019-05-25T01:17:12.175Z,9.90
2019-05-25T01:22:15.010Z,10.00
2019-05-25T01:27:17.802Z,10.00
2019-05-25T01:32:20.621Z,10.00
2019-05-25T01:37:23.371Z,10.10
2019-05-25T01:42:28.491Z,10.20
2019-05-25T01:47:31.651Z,10.10
2019-05-25T01:52:34.501Z,10.10
2019-05-25T01:57:37.349Z,10.10
2019-05-25T02:02:40.176Z,10.20
2019-05-25T02:07:43.171Z,10.20
2019-05-25T02:12:45.994Z,10.10
2019-05-25T02:17:48.681Z,10.20
2019-05-25T02:22:51.367Z,10.10
2019-05-25T02:27:54.178Z,10.10
2019-05-25T02:32:56.945Z,10.00
2019-05-25T02:37:59.755Z,9.90
2019-05-25T02:43:02.777Z,9.80
2019-05-25T02:48:05.682Z,9.80
2019-05-25T02:53:08.396Z,9.70
2019-05-25T02:58:11.330Z,9.70
2019-05-25T03:03:15.072Z,9.60
2019-05-25T03:08:17.828Z,9.70
2019-05-25T03:13:20.639Z,9.80
2019-05-25T03:18:23.440Z,9.90
2019-05-25T03:23:27.606Z,9.90
2019-05-25T03:28:30.808Z,10.00
2019-05-25T03:33:33.556Z,10.10
2019-05-25T03:38:36.714Z,10.20
2019-05-25T03:43:40.307Z,10.30
2019-05-25T03:48:45.884Z,10.50
2019-05-25T03:53:48.610Z,10.50
2019-05-25T03:58:51.276Z,10.60
2019-05-25T04:03:55.185Z,10.50
2019-05-25T04:08:59.819Z,10.50
2019-05-25T04:14:04.463Z,10.70
2019-05-25T04:19:07.149Z,10.80
2019-05-25T04:24:16.733Z,11.00
2019-05-25T04:29:19.507Z,10.90
2019-05-25T04:34:22.316Z,11.00
2019-05-25T04:39:27.299Z,11.10
2019-05-25T04:44:30.099Z,11.30
2019-05-25T04:49:33.910Z,11.40
2019-05-25T04:54:36.902Z,11.50
2019-05-25T04:59:40.428Z,11.60
2019-05-25T05:04:43.246Z,11.90
2019-05-25T05:10:01.206Z,12.00
2019-05-25T05:14:51.092Z,12.00
2019-05-25T05:19:53.965Z,12.10
2019-05-25T05:25:02.564Z,12.40
2019-05-25T05:30:08.434Z,12.50
2019-05-25T05:35:15.687Z,12.60
2019-05-25T05:40:19.077Z,12.80
2019-05-25T05:45:23.212Z,13.10
2019-05-25T05:50:26.785Z,13.30
2019-05-25T05:55:34.242Z,13.40
2019-05-25T06:00:39.577Z,13.70
2019-05-25T06:05:42.284Z,13.80
2019-05-25T06:10:45.226Z,13.90
2019-05-25T06:15:48.235Z,13.60
2019-05-25T06:20:51.042Z,13.30
2019-05-25T06:25:54.645Z,13.00
2019-05-25T06:30:57.500Z,13.50
2019-05-25T06:36:00.395Z,13.90
2019-05-25T06:41:04.228Z,14.30
2019-05-25T06:46:09.646Z,14.60
2019-05-25T06:51:12.561Z,14.30
2019-05-25T06:56:18.905Z,14.40
2019-05-25T07:01:23.611Z,14.30
2019-05-25T07:06:26.397Z,14.40
2019-05-25T07:11:29.420Z,14.40
2019-05-25T07:16:36.719Z,14.20
2019-05-25T07:22:00.859Z,14.30
2019-05-25T07:27:06.998Z,14.50
2019-05-25T07:32:12.056Z,14.50
2019-05-25T07:37:18.048Z,14.30
2019-05-25T07:42:21.274Z,14.40
2019-05-25T07:47:24.488Z,14.20
2019-05-25T07:52:27.640Z,14.00
2019-05-25T07:57:30.463Z,14.20
2019-05-25T08:02:34.334Z,14.10
2019-05-25T08:07:39.995Z,14.30
2019-05-25T08:12:42.988Z,14.30
2019-05-25T08:17:45.776Z,14.30
2019-05-25T08:22:48.488Z,14.40
2019-05-25T08:27:52.345Z,14.60
2019-05-25T08:32:55.787Z,14.70
2019-05-25T08:37:59.732Z,15.10
2019-05-25T08:43:03.639Z,15.40
2019-05-25T08:48:06.480Z,15.70
2019-05-25T08:53:09.394Z,15.70
2019-05-25T08:58:12.984Z,15.60
2019-05-25T09:03:16.901Z,15.60
2019-05-25T09:08:20.420Z,15.60
2019-05-25T09:13:29.884Z,15.50
2019-05-25T09:18:33.021Z,15.70
2019-05-25T09:23:35.952Z,15.50
2019-05-25T09:28:38.716Z,15.70
2019-05-25T09:33:42.849Z,15.50
2019-05-25T09:38:45.574Z,15.60
2019-05-25T09:43:48.422Z,15.70
2019-05-25T09:48:51.245Z,15.60
2019-05-25T09:53:53.903Z,15.50
2019-05-25T09:58:56.664Z,15.40
2019-05-25T10:03:59.527Z,15.50
2019-05-25T10:09:04.022Z,15.40
2019-05-25T10:14:07.062Z,15.10
2019-05-25T10:19:09.787Z,15.30
2019-05-25T10:24:12.680Z,15.40
2019-05-25T10:29:15.552Z,15.50
2019-05-25T10:34:18.381Z,15.80
2019-05-25T10:39:21.184Z,16.00
2019-05-25T10:44:24.231Z,16.20
2019-05-25T10:49:27.113Z,16.20
2019-05-25T10:54:30.867Z,16.20
2019-05-25T10:59:33.655Z,16.60
2019-05-25T11:04:36.786Z,16.50
2019-05-25T11:09:39.639Z,16.60
2019-05-25T11:14:42.324Z,16.90
2019-05-25T11:19:45.496Z,17.30
2019-05-25T11:24:48.374Z,17.70
2019-05-25T11:30:07.602Z,17.80
2019-05-25T11:34:58.110Z,17.90
2019-05-25T11:40:01.003Z,18.50
2019-05-25T11:45:05.326Z,18.90
2019-05-25T11:50:08.782Z,19.20
2019-05-25T11:55:11.962Z,19.50
2019-05-25T12:00:25.108Z,19.30
2019-05-25T12:05:20.386Z,18.70
2019-05-25T12:10:23.299Z,19.50
2019-05-25T12:15:26.274Z,19.70
2019-05-25T12:20:29.062Z,19.10
2019-05-25T12:25:31.849Z,19.40
2019-05-25T12:30:40.888Z,20.10
2019-05-25T12:35:39.060Z,20.50
2019-05-25T12:40:53.144Z,21.30
2019-05-25T12:45:46.950Z,22.10
2019-05-25T12:50:49.723Z,21.80
2019-05-25T12:55:52.492Z,22.40
2019-05-25T13:00:56.310Z,22.60
2019-05-25T13:05:59.226Z,21.50
2019-05-25T13:11:02.996Z,22.00
2019-05-25T13:16:05.937Z,22.20
2019-05-25T13:21:08.632Z,23.10
2019-05-25T13:26:11.301Z,22.20
2019-05-25T13:31:14.085Z,22.80
2019-05-25T13:36:17.007Z,22.30
2019-05-25T13:41:19.604Z,21.30
2019-05-25T13:46:22.309Z,19.60
2019-05-25T13:51:25.080Z,21.30
2019-05-25T13:56:27.798Z,21.50
2019-05-25T14:01:30.559Z,21.90
2019-05-25T14:06:33.332Z,20.80
2019-05-25T14:11:36.175Z,20.90
2019-05-25T14:16:39.095Z,18.00
2019-05-25T14:21:41.794Z,17.70
2019-05-25T14:26:44.541Z,17.60
2019-05-25T14:31:47.249Z,17.90
2019-05-25T14:36:50.058Z,18.30
2019-05-25T14:41:52.916Z,17.80
2019-05-25T14:46:55.855Z,18.20
2019-05-25T14:51:58.637Z,17.60
2019-05-25T14:57:01.480Z,17.20
2019-05-25T15:02:04.554Z,18.50
2019-05-25T15:07:07.395Z,18.40
2019-05-25T15:12:10.345Z,18.60
2019-05-25T15:17:13.144Z,17.30
2019-05-25T15:22:16.060Z,16.00
2019-05-25T15:27:18.919Z,15.40
2019-05-25T15:32:22.023Z,15.10
2019-05-25T15:37:24.807Z,14.70
2019-05-25T15:42:27.483Z,14.30
2019-05-25T15:47:30.445Z,14.00
2019-05-25T15:52:33.160Z,13.80
2019-05-25T15:57:35.934Z,13.60
2019-05-25T16:02:39.750Z,13.70
2019-05-25T16:07:46.024Z,13.20
2019-05-25T16:12:55.587Z,13.10
2019-05-25T16:17:58.937Z,13.10
2019-05-25T16:23:03.226Z,13.00
2019-05-25T16:28:05.996Z,13.20
2019-05-25T16:38:13.347Z,12.70
2019-05-25T16:38:21.093Z,13.10
2019-05-25T16:43:16.170Z,12.80
2019-05-25T16:48:19.079Z,12.90
2019-05-25T16:53:21.808Z,12.80
2019-05-25T16:58:24.620Z,12.80
2019-05-25T17:03:29.150Z,12.80
2019-05-25T17:08:32.113Z,12.70
2019-05-25T17:13:36.012Z,12.70
2019-05-25T17:18:38.736Z,12.80
2019-05-25T17:23:41.435Z,12.80
2019-05-25T17:28:47.677Z,12.80
2019-05-25T17:33:52.012Z,12.90
2019-05-25T17:38:54.900Z,12.60
2019-05-25T17:43:59.436Z,12.50
2019-05-25T17:49:02.193Z,12.50
2019-05-25T17:54:04.950Z,12.40
2019-05-25T17:59:07.772Z,12.30
2019-05-25T18:04:10.575Z,12.20
2019-05-25T18:09:13.343Z,12.20
2019-05-25T18:14:22.827Z,12.10
2019-05-25T18:19:27.062Z,11.80
2019-05-25T18:24:46.003Z,11.80
2019-05-25T18:29:55.976Z,11.70
2019-05-25T18:35:03.692Z,11.80
2019-05-25T18:40:11.698Z,12.30
2019-05-25T18:45:18.480Z,12.10
2019-05-25T18:50:24.995Z,11.80
2019-05-25T18:55:28.827Z,11.60
2019-05-25T19:00:31.958Z,11.60
2019-05-25T19:05:38.094Z,11.60
2019-05-25T19:10:43.857Z,11.60
2019-05-25T19:15:48.046Z,11.50
2019-05-25T19:20:51.749Z,11.50
2019-05-25T19:25:54.799Z,11.50
2019-05-25T19:31:00.026Z,11.50
2019-05-25T19:36:06.545Z,11.50
2019-05-25T19:41:10.011Z,11.50
2019-05-25T19:46:14.073Z,11.50
2019-05-25T19:51:16.910Z,11.50
2019-05-25T19:56:20.106Z,11.50
2019-05-25T20:01:22.984Z,11.50
2019-05-25T20:06:25.793Z,11.40
2019-05-25T20:11:28.541Z,11.40
2019-05-25T20:16:31.373Z,11.50
2019-05-25T20:21:34.326Z,11.50
2019-05-25T20:26:37.142Z,11.40
2019-05-25T20:31:39.950Z,11.30
2019-05-25T20:36:42.668Z,11.30
2019-05-25T20:41:45.491Z,11.30
2019-05-25T20:46:48.179Z,11.20
2019-05-25T20:51:51.396Z,11.20
2019-05-25T20:56:56.182Z,11.20
2019-05-25T21:02:00.489Z,11.20
2019-05-25T21:07:03.319Z,11.20
2019-05-25T21:12:06.265Z,11.10
2019-05-25T21:17:09.262Z,11.00
2019-05-25T21:22:12.629Z,11.00
2019-05-25T21:27:15.773Z,11.00
2019-05-25T21:32:18.974Z,11.10
2019-05-25T21:37:22.140Z,11.00
2019-05-25T21:42:25.080Z,11.00
2019-05-25T21:47:28.040Z,11.00
2019-05-25T21:52:30.960Z,11.10
2019-05-25T21:57:33.883Z,11.10
2019-05-25T22:02:39.493Z,11.00
2019-05-25T22:07:42.428Z,11.00
2019-05-25T22:12:45.147Z,11.00
2019-05-25T22:17:48.871Z,11.00
2019-05-25T22:22:53.667Z,11.00
2019-05-25T22:27:56.580Z,10.90
2019-05-25T22:32:59.937Z,10.90
2019-05-25T22:38:02.716Z,10.90
2019-05-25T22:43:05.491Z,11.00
2019-05-25T22:48:08.114Z,10.90
2019-05-25T22:53:10.952Z,10.90
2019-05-25T22:58:14.143Z,10.80
2019-05-25T23:03:17.078Z,10.80
2019-05-25T23:08:19.910Z,10.80
2019-05-25T23:13:22.515Z,10.80
2019-05-25T23:18:25.240Z,10.80
2019-05-25T23:23:28.234Z,10.80
2019-05-25T23:28:31.219Z,10.70
2019-05-25T23:33:33.974Z,10.70
2019-05-25T23:38:36.882Z,10.70
2019-05-25T23:43:39.789Z,10.70
2019-05-25T23:48:46.455Z,10.60
2019-05-25T23:53:49.259Z,10.50
2019-05-25T23:58:51.924Z,10.30
